Aikou Maru No.28 — JD2869 — position and weather

sailwx.info

Track history (hours):
 
Tides and Currents Weather Stations Pressure Air Temp Water Temp Dewpoint Dewpoint Depression Visibility Wind Speed Wind Dir Waves Ship Positions

Aikou Maru No.28

Last reported at 2017-Sep-28 08:13 UTC. Time now 2017-Oct-17 03:58 UTC.
Position N 34°36' E 135°03'.
Warning: this ship's position is 18 days out of date.

Length 75 m; draft 4 m.

Type: Cargo ship. MMSI: 431000846.

Date/timePositionNaut miles runAvg speedWind from/ knotsBaromVisibWave heightAir tempDewpointWater temp
2017-Sep-28 08:13N 34°36' E 135°03'312.0
2017-Sep-28 08:01N 34°36' E 135°06'612.5
2017-Sep-28 07:31N 34°37' E 135°14'612.3
2017-Sep-28 07:01N 34°36' E 135°21'5 6.6
2017-Sep-28 06:19N 34°35' E 135°26'0 0.0
2017-Sep-28 05:49N 34°35' E 135°26'0 0.0
2017-Sep-28 03:59N 34°35' E 135°26'  
2017-Sep-25 22:51N 34°35' E 135°27'1 0.2
2017-Sep-25 19:50N 34°35' E 135°27'0 0.0
2017-Sep-25 19:20N 34°35' E 135°27'0 0.0
2017-Sep-25 16:14N 34°35' E 135°27'0 0.1
2017-Sep-25 16:00N 34°35' E 135°27'4 8.4
2017-Sep-25 15:29N 34°36' E 135°22'611.4
2017-Sep-25 14:59N 34°32' E 135°17'611.5
2017-Sep-25 14:30N 34°28' E 135°13'611.7
2017-Sep-25 13:59N 34°23' E 135°08'812.5
2017-Sep-25 13:19N 34°16' E 135°03'412.2
2017-Sep-25 13:00N 34°12' E 135°03'225 9.2
2017-Sep-24 12:30N 34°58' E 139°30'510.2
2017-Sep-24 11:58N 35°02' E 139°35'510.2
2017-Sep-24 11:30N 35°05' E 139°39'510.8
2017-Sep-24 11:00N 35°09' E 139°43'611.4
2017-Sep-24 10:30N 35°15' E 139°46'611.7
2017-Sep-24 10:00N 35°20' E 139°43'510.9
2017-Sep-24 09:30N 35°25' E 139°43'3 6.2
2017-Sep-24 08:59N 35°28' E 139°42'0 0.0
2017-Sep-24 08:29N 35°28' E 139°42'0 0.0
2017-Sep-24 07:59N 35°28' E 139°42'0 0.0
2017-Sep-24 07:29N 35°28' E 139°42'0 0.0
2017-Sep-24 06:59N 35°28' E 139°42'0 0.0
2017-Sep-24 06:29N 35°28' E 139°42'0 0.0
2017-Sep-24 05:59N 35°28' E 139°42'0 0.0
2017-Sep-24 05:29N 35°28' E 139°42'0 0.0
2017-Sep-24 04:59N 35°28' E 139°42'0 0.0
2017-Sep-24 04:26N 35°28' E 139°42'0 0.0
2017-Sep-24 03:59N 35°28' E 139°42'0 0.0
2017-Sep-24 03:29N 35°28' E 139°42'0 0.0
2017-Sep-24 02:59N 35°28' E 139°42'0 0.0
2017-Sep-24 02:29N 35°28' E 139°42'0 0.0
2017-Sep-24 01:59N 35°28' E 139°42'0 0.0
2017-Sep-24 01:29N 35°28' E 139°42'0 0.0
2017-Sep-24 00:59N 35°28' E 139°42'0 0.0
2017-Sep-24 00:29N 35°28' E 139°42'0 0.0
2017-Sep-23 23:59N 35°28' E 139°42'0 0.2
2017-Sep-23 23:30N 35°28' E 139°42'1 2.7
2017-Sep-23 23:00N 35°27' E 139°43'0 0.0
2017-Sep-23 22:30N 35°27' E 139°43'0 0.0
2017-Sep-23 22:00N 35°27' E 139°43'0 0.0
2017-Sep-23 21:30N 35°27' E 139°43'0 0.0
2017-Sep-23 21:00N 35°27' E 139°43'0 0.1
2017-Sep-23 20:30N 35°27' E 139°43'0 0.0
2017-Sep-23 20:00N 35°27' E 139°43'2 0.0
2017-Sep-22 01:55N 35°28' E 139°42'0 0.0
2017-Sep-22 01:28N 35°28' E 139°42'0 0.1
2017-Sep-22 00:58N 35°28' E 139°42'0 0.0
2017-Sep-22 00:28N 35°28' E 139°42'0 0.1
2017-Sep-21 23:58N 35°28' E 139°42'0 0.8
2017-Sep-21 23:30N 35°28' E 139°42'1 2.4
2017-Sep-21 22:59N 35°27' E 139°42'0 0.0
2017-Sep-21 22:29N 35°27' E 139°42'0 0.1
2017-Sep-21 21:59N 35°27' E 139°42'0 0.0
2017-Sep-21 21:29N 35°27' E 139°42'0 0.0
2017-Sep-21 20:59N 35°27' E 139°42'0 0.0
2017-Sep-21 20:29N 35°27' E 139°42'0 0.0
2017-Sep-21 19:59N 35°27' E 139°42'0 0.1
2017-Sep-21 19:29N 35°27' E 139°42'0 0.1
2017-Sep-21 18:59N 35°27' E 139°42'0 0.0
2017-Sep-21 18:29N 35°27' E 139°42'0 0.0
2017-Sep-21 17:59N 35°27' E 139°42'0 0.0
2017-Sep-21 17:29N 35°27' E 139°42'0 0.0
2017-Sep-21 16:59N 35°27' E 139°42'0 0.2
2017-Sep-21 16:30N 35°27' E 139°42'510.2
2017-Sep-21 16:00N 35°22' E 139°43'611.5
2017-Sep-21 15:30N 35°17' E 139°46'510.5
2017-Sep-21 15:00N 35°11' E 139°47'510.9
2017-Sep-21 14:30N 35°06' E 139°44'511.0
2017-Sep-21 14:00N 35°03' E 139°39'611.6
2017-Sep-21 13:30N 34°59' E 139°33'713.5
2017-Sep-21 13:00N 34°56' E 139°26'  
Track history (hours):
 
Tides and Currents Weather Stations Pressure Air Temp Water Temp Dewpoint Dewpoint Depression Visibility Wind Speed Wind Dir Waves Ship Positions

Aikou Maru No.28

Last reported at 2017-Sep-28 08:13 UTC. Time now 2017-Oct-17 03:58 UTC.
Position N 34°36' E 135°03'.
Warning: this ship's position is 18 days out of date.

Length 75 m; draft 4 m.

Type: Cargo ship. MMSI: 431000846.

Date/timePositionNaut miles runAvg speedWind from/ knotsBaromVisibWave heightAir tempDewpointWater temp
2017-Sep-28 08:13N 34°36' E 135°03'312.0
2017-Sep-28 08:01N 34°36' E 135°06'612.5
2017-Sep-28 07:31N 34°37' E 135°14'612.3
2017-Sep-28 07:01N 34°36' E 135°21'5 6.6
2017-Sep-28 06:19N 34°35' E 135°26'0 0.0
2017-Sep-28 05:49N 34°35' E 135°26'0 0.0
2017-Sep-28 03:59N 34°35' E 135°26'  
2017-Sep-25 22:51N 34°35' E 135°27'1 0.2
2017-Sep-25 19:50N 34°35' E 135°27'0 0.0
2017-Sep-25 19:20N 34°35' E 135°27'0 0.0
2017-Sep-25 16:14N 34°35' E 135°27'0 0.1
2017-Sep-25 16:00N 34°35' E 135°27'4 8.4
2017-Sep-25 15:29N 34°36' E 135°22'611.4
2017-Sep-25 14:59N 34°32' E 135°17'611.5
2017-Sep-25 14:30N 34°28' E 135°13'611.7
2017-Sep-25 13:59N 34°23' E 135°08'812.5
2017-Sep-25 13:19N 34°16' E 135°03'412.2
2017-Sep-25 13:00N 34°12' E 135°03'225 9.2
2017-Sep-24 12:30N 34°58' E 139°30'510.2
2017-Sep-24 11:58N 35°02' E 139°35'510.2
2017-Sep-24 11:30N 35°05' E 139°39'510.8
2017-Sep-24 11:00N 35°09' E 139°43'611.4
2017-Sep-24 10:30N 35°15' E 139°46'611.7
2017-Sep-24 10:00N 35°20' E 139°43'510.9
2017-Sep-24 09:30N 35°25' E 139°43'3 6.2
2017-Sep-24 08:59N 35°28' E 139°42'0 0.0
2017-Sep-24 08:29N 35°28' E 139°42'0 0.0
2017-Sep-24 07:59N 35°28' E 139°42'0 0.0
2017-Sep-24 07:29N 35°28' E 139°42'0 0.0
2017-Sep-24 06:59N 35°28' E 139°42'0 0.0
2017-Sep-24 06:29N 35°28' E 139°42'0 0.0
2017-Sep-24 05:59N 35°28' E 139°42'0 0.0
2017-Sep-24 05:29N 35°28' E 139°42'0 0.0
2017-Sep-24 04:59N 35°28' E 139°42'0 0.0
2017-Sep-24 04:26N 35°28' E 139°42'0 0.0
2017-Sep-24 03:59N 35°28' E 139°42'0 0.0
2017-Sep-24 03:29N 35°28' E 139°42'0 0.0
2017-Sep-24 02:59N 35°28' E 139°42'0 0.0
2017-Sep-24 02:29N 35°28' E 139°42'0 0.0
2017-Sep-24 01:59N 35°28' E 139°42'0 0.0
2017-Sep-24 01:29N 35°28' E 139°42'0 0.0
2017-Sep-24 00:59N 35°28' E 139°42'0 0.0
2017-Sep-24 00:29N 35°28' E 139°42'0 0.0
2017-Sep-23 23:59N 35°28' E 139°42'0 0.2
2017-Sep-23 23:30N 35°28' E 139°42'1 2.7
2017-Sep-23 23:00N 35°27' E 139°43'0 0.0
2017-Sep-23 22:30N 35°27' E 139°43'0 0.0
2017-Sep-23 22:00N 35°27' E 139°43'0 0.0
2017-Sep-23 21:30N 35°27' E 139°43'0 0.0
2017-Sep-23 21:00N 35°27' E 139°43'0 0.1
2017-Sep-23 20:30N 35°27' E 139°43'0 0.0
2017-Sep-23 20:00N 35°27' E 139°43'2 0.0
2017-Sep-22 01:55N 35°28' E 139°42'0 0.0
2017-Sep-22 01:28N 35°28' E 139°42'0 0.1
2017-Sep-22 00:58N 35°28' E 139°42'0 0.0
2017-Sep-22 00:28N 35°28' E 139°42'0 0.1
2017-Sep-21 23:58N 35°28' E 139°42'0 0.8
2017-Sep-21 23:30N 35°28' E 139°42'1 2.4
2017-Sep-21 22:59N 35°27' E 139°42'0 0.0
2017-Sep-21 22:29N 35°27' E 139°42'0 0.1
2017-Sep-21 21:59N 35°27' E 139°42'0 0.0
2017-Sep-21 21:29N 35°27' E 139°42'0 0.0
2017-Sep-21 20:59N 35°27' E 139°42'0 0.0
2017-Sep-21 20:29N 35°27' E 139°42'0 0.0
2017-Sep-21 19:59N 35°27' E 139°42'0 0.1
2017-Sep-21 19:29N 35°27' E 139°42'0 0.1
2017-Sep-21 18:59N 35°27' E 139°42'0 0.0
2017-Sep-21 18:29N 35°27' E 139°42'0 0.0
2017-Sep-21 17:59N 35°27' E 139°42'0 0.0
2017-Sep-21 17:29N 35°27' E 139°42'0 0.0
2017-Sep-21 16:59N 35°27' E 139°42'0 0.2
2017-Sep-21 16:30N 35°27' E 139°42'510.2
2017-Sep-21 16:00N 35°22' E 139°43'611.5
2017-Sep-21 15:30N 35°17' E 139°46'510.5
2017-Sep-21 15:00N 35°11' E 139°47'510.9
2017-Sep-21 14:30N 35°06' E 139°44'511.0
2017-Sep-21 14:00N 35°03' E 139°39'611.6
2017-Sep-21 13:30N 34°59' E 139°33'713.5
2017-Sep-21 13:00N 34°56' E 139°26'  

Dump ship's entire track history